createdAt,value
2018-09-28T00:00:54.258Z,101457.30
2018-09-28T00:03:23.214Z,101456.96
2018-09-28T00:05:52.121Z,101462.26
2018-09-28T00:08:21.091Z,101464.08
2018-09-28T00:10:50.080Z,101468.73
2018-09-28T00:13:19.176Z,101468.41
2018-09-28T00:15:48.287Z,101472.13
2018-09-28T00:18:17.383Z,101472.77
2018-09-28T00:20:46.771Z,101473.05
2018-09-28T00:23:15.669Z,101472.51
2018-09-28T00:25:44.663Z,101466.58
2018-09-28T00:28:13.923Z,101465.45
2018-09-28T00:30:43.017Z,101472.27
2018-09-28T00:33:11.973Z,101471.73
2018-09-28T00:35:41.195Z,101472.78
2018-09-28T00:38:10.161Z,101474.78
2018-09-28T00:40:39.108Z,101466.20
2018-09-28T00:43:08.115Z,101471.68
2018-09-28T00:45:37.130Z,101471.13
2018-09-28T00:48:06.096Z,101464.66
2018-09-28T00:50:35.014Z,101470.05
2018-09-28T00:53:04.128Z,101461.25
2018-09-28T00:55:33.174Z,101465.92
2018-09-28T00:58:02.272Z,101465.05
2018-09-28T01:00:31.492Z,101477.45
2018-09-28T01:03:00.497Z,101463.69
2018-09-28T01:05:29.617Z,101468.59
2018-09-28T01:07:58.870Z,101468.58
2018-09-28T01:10:27.858Z,101465.28
2018-09-28T01:12:56.812Z,101463.09
2018-09-28T01:15:25.817Z,101464.44
2018-09-28T01:17:54.903Z,101463.08
2018-09-28T01:20:23.892Z,101461.35
2018-09-28T01:22:53.035Z,101464.64
2018-09-28T01:25:22.091Z,101460.63
2018-09-28T01:27:51.065Z,101453.08
2018-09-28T01:30:20.093Z,101458.45
2018-09-28T01:32:49.173Z,101454.41
2018-09-28T01:35:18.198Z,101457.55
2018-09-28T01:37:47.181Z,101468.19
2018-09-28T01:40:16.238Z,101471.44
2018-09-28T01:42:45.412Z,101460.52
2018-09-28T01:45:14.380Z,101471.10
2018-09-28T01:47:43.432Z,101478.41
2018-09-28T01:50:12.536Z,101478.04
2018-09-28T01:52:41.598Z,101477.52
2018-09-28T01:55:10.698Z,101477.47
2018-09-28T01:57:39.890Z,101473.32
2018-09-28T02:00:08.952Z,101484.14
2018-09-28T02:02:37.981Z,101481.52
2018-09-28T02:05:06.947Z,101482.54
2018-09-28T02:07:35.881Z,101482.33
2018-09-28T02:10:04.812Z,101477.59
2018-09-28T02:12:33.794Z,101482.38
2018-09-28T02:15:02.718Z,101489.52
2018-09-28T02:17:31.813Z,101479.72
2018-09-28T02:20:00.738Z,101473.19
2018-09-28T02:22:29.664Z,101485.70
2018-09-28T02:24:58.601Z,101484.44
2018-09-28T02:27:27.529Z,101492.16
2018-09-28T02:29:56.489Z,101495.91
2018-09-28T02:32:25.410Z,101488.37
2018-09-28T02:34:54.339Z,101487.92
2018-09-28T02:37:23.248Z,101493.81
2018-09-28T02:39:52.214Z,101510.22
2018-09-28T02:42:21.130Z,101514.84
2018-09-28T02:44:50.455Z,101516.78
2018-09-28T02:47:19.381Z,101523.09
2018-09-28T02:49:48.330Z,101520.02
2018-09-28T02:52:17.302Z,101514.52
2018-09-28T02:54:46.242Z,101511.23
2018-09-28T02:57:15.261Z,101508.51
2018-09-28T02:59:44.370Z,101518.78
2018-09-28T03:02:13.341Z,101535.10
2018-09-28T03:04:42.785Z,101522.20
2018-09-28T03:07:11.742Z,101530.83
2018-09-28T03:09:40.672Z,101536.64
2018-09-28T03:12:09.630Z,101536.27
2018-09-28T03:14:38.597Z,101540.63
2018-09-28T03:17:07.506Z,101538.45
2018-09-28T03:19:36.473Z,101538.55
2018-09-28T03:22:05.405Z,101548.30
2018-09-28T03:24:34.501Z,101552.92
2018-09-28T03:27:03.455Z,101559.27
2018-09-28T03:29:32.417Z,101560.03
2018-09-28T03:32:01.371Z,101559.83
2018-09-28T03:34:30.346Z,101550.58
2018-09-28T03:36:59.454Z,101565.03
2018-09-28T03:39:28.412Z,101560.46
2018-09-28T03:41:57.403Z,101569.73
2018-09-28T03:44:26.353Z,101579.52
2018-09-28T03:46:55.299Z,101586.13
2018-09-28T03:49:24.493Z,101586.23
2018-09-28T03:51:53.420Z,101588.76
2018-09-28T03:54:22.390Z,101601.72
2018-09-28T03:56:51.355Z,101597.34
2018-09-28T03:59:20.285Z,101600.03
2018-09-28T04:01:49.233Z,101596.66
2018-09-28T04:04:18.207Z,101603.11
2018-09-28T04:06:47.137Z,101603.97
2018-09-28T04:09:16.092Z,101606.11
2018-09-28T04:11:45.058Z,101610.91
2018-09-28T04:14:14.095Z,101613.56
2018-09-28T04:16:43.160Z,101619.72
2018-09-28T04:19:12.094Z,101626.44
2018-09-28T04:21:45.250Z,101625.94
2018-09-28T04:24:14.197Z,101630.56
2018-09-28T04:26:43.150Z,101634.53
2018-09-28T04:29:12.101Z,101640.57
2018-09-28T04:31:41.065Z,101644.73
2018-09-28T04:34:10.077Z,101658.49
2018-09-28T04:36:39.017Z,101656.59
2018-09-28T04:39:07.943Z,101660.39
2018-09-28T04:41:36.926Z,101663.73
2018-09-28T04:44:05.854Z,101660.19
2018-09-28T04:46:35.279Z,101671.84
2018-09-28T04:49:04.274Z,101668.52
2018-09-28T04:51:33.212Z,101672.66
2018-09-28T04:54:02.445Z,101684.34
2018-09-28T04:56:31.665Z,101680.99
2018-09-28T04:59:00.593Z,101687.20
2018-09-28T05:01:29.670Z,101683.58
2018-09-28T05:03:58.619Z,101697.73
2018-09-28T05:06:27.565Z,101702.09
2018-09-28T05:08:56.514Z,101705.60
2018-09-28T05:11:25.464Z,101718.53
2018-09-28T05:13:54.363Z,101723.27
2018-09-28T05:16:23.315Z,101726.04
2018-09-28T05:18:52.266Z,101729.09
2018-09-28T05:21:21.197Z,101732.22
2018-09-28T05:23:50.151Z,101739.58
2018-09-28T05:26:19.044Z,101739.72
2018-09-28T05:28:48.064Z,101743.25
2018-09-28T05:31:17.013Z,101749.39
2018-09-28T05:33:45.943Z,101751.07
2018-09-28T05:36:14.958Z,101756.41
2018-09-28T05:38:43.893Z,101755.35
2018-09-28T05:41:12.841Z,101760.48
2018-09-28T05:43:41.834Z,101758.71
2018-09-28T05:46:10.809Z,101762.50
2018-09-28T05:48:39.766Z,101773.60
2018-09-28T05:51:08.754Z,101777.80
2018-09-28T05:53:38.281Z,101778.37
2018-09-28T05:56:07.312Z,101782.14
2018-09-28T05:58:41.772Z,101785.73
2018-09-28T06:01:16.014Z,101790.01
2018-09-28T06:03:50.364Z,101796.53
2018-09-28T06:06:19.278Z,101799.98
2018-09-28T06:08:48.263Z,101803.86
2018-09-28T06:11:17.252Z,101806.37
2018-09-28T06:13:46.154Z,101814.31
2018-09-28T06:16:15.041Z,101815.94
2018-09-28T06:18:43.991Z,101819.07
2018-09-28T06:21:12.885Z,101824.53
2018-09-28T06:23:41.822Z,101822.19
2018-09-28T06:26:10.936Z,101823.48
2018-09-28T06:28:39.812Z,101824.89
2018-09-28T06:31:08.765Z,101837.69
2018-09-28T06:33:37.702Z,101840.31
2018-09-28T06:36:06.671Z,101843.15
2018-09-28T06:38:35.744Z,101851.72
2018-09-28T06:41:04.677Z,101843.09
2018-09-28T06:43:33.583Z,101857.48
2018-09-28T06:46:02.558Z,101865.80
2018-09-28T06:48:31.540Z,101871.80
2018-09-28T06:51:00.472Z,101866.31
2018-09-28T06:53:29.406Z,101875.55
2018-09-28T06:55:58.307Z,101877.70
2018-09-28T06:58:27.283Z,101871.84
2018-09-28T07:00:56.212Z,101877.37
2018-09-28T07:03:25.270Z,101877.63
2018-09-28T07:05:54.259Z,101875.00
2018-09-28T07:08:23.145Z,101878.82
2018-09-28T07:10:52.151Z,101882.81
2018-09-28T07:13:21.127Z,101888.24
2018-09-28T07:15:50.088Z,101893.72
2018-09-28T07:18:19.027Z,101893.38
2018-09-28T07:20:48.026Z,101891.65
2018-09-28T07:23:17.309Z,101911.97
2018-09-28T07:25:46.240Z,101919.23
2018-09-28T07:28:15.133Z,101905.21
2018-09-28T07:30:44.136Z,101910.75
2018-09-28T07:33:13.048Z,101916.56
2018-09-28T07:35:42.000Z,101911.70
2018-09-28T07:38:10.976Z,101916.58
2018-09-28T07:40:39.892Z,101914.13
2018-09-28T07:43:08.816Z,101919.50
2018-09-28T07:45:37.761Z,101924.92
2018-09-28T07:48:06.756Z,101925.83
2018-09-28T07:50:35.696Z,101931.33
2018-09-28T07:53:04.642Z,101928.02
2018-09-28T07:55:33.613Z,101931.48
2018-09-28T07:58:02.538Z,101928.19
2018-09-28T08:00:31.649Z,101940.39
2018-09-28T08:03:00.660Z,101942.52
2018-09-28T08:05:29.617Z,101943.88
2018-09-28T08:07:58.545Z,101944.19
2018-09-28T08:10:27.479Z,101951.69
2018-09-28T08:12:56.443Z,101954.42
2018-09-28T08:15:25.657Z,101966.06
2018-09-28T08:17:54.673Z,101958.76
2018-09-28T08:20:23.589Z,101969.48
2018-09-28T08:22:52.587Z,101966.62
2018-09-28T08:25:21.846Z,101973.28
2018-09-28T08:27:50.990Z,101963.11
2018-09-28T08:30:19.977Z,101966.78
2018-09-28T08:32:48.939Z,101965.20
2018-09-28T08:35:18.244Z,101967.93
2018-09-28T08:37:47.140Z,101972.75
2018-09-28T08:40:16.060Z,101975.78
2018-09-28T08:42:45.061Z,101979.28
2018-09-28T08:45:13.993Z,101975.46
2018-09-28T08:47:42.984Z,101983.80
2018-09-28T08:50:11.905Z,101991.64
2018-09-28T08:52:40.899Z,101991.35
2018-09-28T08:55:09.881Z,101992.48
2018-09-28T08:57:39.057Z,101987.05
2018-09-28T09:00:08.017Z,101987.08
2018-09-28T09:02:37.287Z,101988.04
2018-09-28T09:05:06.206Z,101984.72
2018-09-28T09:07:35.127Z,101990.41
2018-09-28T09:10:04.086Z,101986.91
2018-09-28T09:12:33.065Z,101997.07
2018-09-28T09:15:02.045Z,101997.09
2018-09-28T09:17:30.965Z,102001.52
2018-09-28T09:19:59.959Z,101999.44
2018-09-28T09:22:28.918Z,102002.00
2018-09-28T09:24:58.061Z,102005.64
2018-09-28T09:27:27.065Z,102016.75
2018-09-28T09:29:56.053Z,102010.79
2018-09-28T09:32:25.108Z,102004.56
2018-09-28T09:34:54.075Z,102007.78
2018-09-28T09:37:23.063Z,102001.91
2018-09-28T09:39:52.057Z,102010.20
2018-09-28T09:42:20.966Z,102007.51
2018-09-28T09:44:49.894Z,102011.61
2018-09-28T09:47:18.873Z,102009.01
2018-09-28T09:49:47.794Z,101998.21
2018-09-28T09:52:16.757Z,102004.03
2018-09-28T09:54:45.965Z,102001.67
2018-09-28T09:57:14.919Z,102001.50
2018-09-28T09:59:43.848Z,102004.44
2018-09-28T10:02:19.176Z,102004.64
2018-09-28T10:04:48.106Z,102006.50
2018-09-28T10:07:17.021Z,102008.81
2018-09-28T10:09:46.095Z,102005.16
2018-09-28T10:12:15.082Z,102001.03
2018-09-28T10:14:44.063Z,102001.71
2018-09-28T10:17:13.032Z,101999.44
2018-09-28T10:19:42.053Z,101999.46
2018-09-28T10:22:12.552Z,101996.81
2018-09-28T10:24:41.442Z,102005.03
2018-09-28T10:27:10.358Z,102004.18
2018-09-28T10:29:39.389Z,102004.19
2018-09-28T10:32:08.347Z,102011.75
2018-09-28T10:34:37.359Z,102009.16
2018-09-28T10:37:06.405Z,102019.93
2018-09-28T10:39:35.377Z,102011.81
2018-09-28T10:42:04.304Z,102007.52
2018-09-28T10:44:33.257Z,102009.10
2018-09-28T10:47:02.496Z,102016.59
2018-09-28T10:49:31.540Z,102007.55
2018-09-28T10:52:00.620Z,102005.71
2018-09-28T10:54:29.503Z,102019.92
2018-09-28T10:56:58.452Z,102021.27
2018-09-28T10:59:27.551Z,102017.33
2018-09-28T11:01:56.696Z,102023.47
2018-09-28T11:04:25.766Z,102022.73
2018-09-28T11:06:54.679Z,102024.36
2018-09-28T11:09:23.672Z,102014.13
2018-09-28T11:11:52.671Z,102007.28
2018-09-28T11:14:21.615Z,102009.00
2018-09-28T11:16:50.724Z,102005.41
2018-09-28T11:19:19.755Z,102003.27
2018-09-28T11:21:48.847Z,102008.84
2018-09-28T11:24:17.842Z,102010.88
2018-09-28T11:26:47.058Z,102015.75
2018-09-28T11:29:16.129Z,102014.97
2018-09-28T11:31:45.038Z,102018.17
2018-09-28T11:34:14.545Z,102013.80
2018-09-28T11:36:44.105Z,102017.64
2018-09-28T11:39:13.117Z,102020.81
2018-09-28T11:41:41.989Z,102012.07
2018-09-28T11:44:11.189Z,102016.05
2018-09-28T11:46:40.180Z,102022.52
2018-09-28T11:49:09.183Z,102020.78
2018-09-28T11:51:38.471Z,102016.40
2018-09-28T11:54:07.436Z,102029.31
2018-09-28T11:56:36.385Z,102024.23
2018-09-28T11:59:05.619Z,102025.32
2018-09-28T12:01:34.570Z,102020.62
2018-09-28T12:04:03.475Z,102022.61
2018-09-28T12:06:32.600Z,102022.19
2018-09-28T12:09:01.404Z,102025.80
2018-09-28T12:11:30.390Z,102015.85
2018-09-28T12:13:59.338Z,102012.44
2018-09-28T12:16:30.580Z,102030.41
2018-09-28T12:18:59.499Z,102008.42
2018-09-28T12:21:28.515Z,102016.47
2018-09-28T12:23:57.422Z,102016.63
2018-09-28T12:26:26.371Z,102010.38
2018-09-28T12:28:55.276Z,102015.26
2018-09-28T12:31:24.239Z,102009.14
2018-09-28T12:33:53.215Z,102020.86
2018-09-28T12:36:22.248Z,102025.55
2018-09-28T12:38:51.587Z,102020.83
2018-09-28T12:41:20.520Z,102019.52
2018-09-28T12:43:49.459Z,102026.22
2018-09-28T12:46:18.425Z,102024.67
2018-09-28T12:48:47.363Z,102025.36
2018-09-28T12:51:16.274Z,102029.13
2018-09-28T12:53:45.317Z,102029.80
2018-09-28T12:56:14.240Z,102032.19
2018-09-28T12:58:43.191Z,102033.44
2018-09-28T13:01:12.372Z,102031.67
2018-09-28T13:03:41.460Z,102029.42
2018-09-28T13:06:10.434Z,102036.09
2018-09-28T13:08:39.345Z,102037.28
2018-09-28T13:11:08.324Z,102032.45
2018-09-28T13:13:37.356Z,102036.05
2018-09-28T13:16:06.598Z,102025.46
2018-09-28T13:18:35.553Z,102029.42
2018-09-28T13:21:04.670Z,102027.61
2018-09-28T13:23:33.601Z,102028.91
2018-09-28T13:26:02.537Z,102027.66
2018-09-28T13:28:32.191Z,102034.91
2018-09-28T13:31:01.254Z,102033.64
2018-09-28T13:33:30.401Z,102029.94
2018-09-28T13:35:59.318Z,102038.25
2018-09-28T13:38:28.704Z,102039.33
2018-09-28T13:40:57.579Z,102046.35
2018-09-28T13:43:26.650Z,102040.38
2018-09-28T13:45:55.707Z,102047.86
2018-09-28T13:48:24.690Z,102042.80
2018-09-28T13:50:54.207Z,102040.05
2018-09-28T13:53:23.111Z,102049.73
2018-09-28T13:55:52.098Z,102046.70
2018-09-28T13:58:21.129Z,102049.73
2018-09-28T14:00:50.033Z,102050.59
2018-09-28T14:03:19.052Z,102052.11
2018-09-28T14:05:47.995Z,102046.67
2018-09-28T14:08:16.955Z,102045.32
2018-09-28T14:10:45.921Z,102037.28
2018-09-28T14:13:14.801Z,102041.81
2018-09-28T14:15:43.767Z,102039.58
2018-09-28T14:18:12.821Z,102038.40
2018-09-28T14:20:41.879Z,102036.92
2018-09-28T14:23:11.038Z,102050.08
2018-09-28T14:25:40.164Z,102050.70
2018-09-28T14:28:09.346Z,102053.22
2018-09-28T14:30:38.228Z,102058.74
2018-09-28T14:33:07.145Z,102065.26
2018-09-28T14:35:36.135Z,102071.02
2018-09-28T14:38:05.178Z,102070.91
2018-09-28T14:40:57.088Z,102065.44
2018-09-28T14:43:45.117Z,102070.52
2018-09-28T14:46:33.736Z,102071.90
2018-09-28T14:49:23.247Z,102069.42
2018-09-28T14:52:12.434Z,102070.55
2018-09-28T14:55:14.153Z,102074.06
2018-09-28T14:57:47.288Z,102068.80
2018-09-28T15:00:34.483Z,102063.87
2018-09-28T15:06:52.148Z,102065.38
2018-09-28T15:09:47.048Z,102074.63
2018-09-28T15:13:12.369Z,102058.65
2018-09-28T15:19:04.878Z,102065.05
2018-09-28T15:21:58.037Z,102070.08
2018-09-28T15:24:46.879Z,102073.33
2018-09-28T15:31:49.535Z,102085.94
2018-09-28T15:34:27.418Z,102092.27
2018-09-28T15:36:56.334Z,102106.55
2018-09-28T15:39:25.251Z,102103.70
2018-09-28T15:41:54.248Z,102118.16
2018-09-28T15:44:23.221Z,102100.72
2018-09-28T15:46:52.187Z,102110.77
2018-09-28T15:49:21.131Z,102110.20
2018-09-28T15:51:50.150Z,102104.91
2018-09-28T15:54:19.114Z,102101.23
2018-09-28T15:56:48.129Z,102101.10
2018-09-28T15:59:17.074Z,102103.09
2018-09-28T16:01:46.066Z,102104.23
2018-09-28T16:04:15.069Z,102123.86
2018-09-28T16:06:44.055Z,102107.22
2018-09-28T16:09:13.002Z,102112.97
2018-09-28T16:11:41.963Z,102118.96
2018-09-28T16:14:11.014Z,102125.67
2018-09-28T16:16:39.971Z,102121.92
2018-09-28T16:19:08.936Z,102132.75
2018-09-28T16:21:37.972Z,102135.92
2018-09-28T16:24:07.067Z,102137.66
2018-09-28T16:26:36.016Z,102144.67
2018-09-28T16:29:05.100Z,102144.94
2018-09-28T16:31:34.108Z,102152.50
2018-09-28T16:34:04.049Z,102157.32
2018-09-28T16:36:33.000Z,102154.88
2018-09-28T16:39:01.973Z,102140.48
2018-09-28T16:41:30.951Z,102146.50
2018-09-28T16:43:59.942Z,102145.39
2018-09-28T16:46:28.929Z,102155.94
2018-09-28T16:48:57.873Z,102158.68
2018-09-28T16:51:26.805Z,102168.14
2018-09-28T16:53:55.772Z,102168.63
2018-09-28T16:56:24.717Z,102177.33
2018-09-28T16:58:53.738Z,102182.60
2018-09-28T17:01:22.675Z,102180.33
2018-09-28T17:03:51.700Z,102184.81
2018-09-28T17:06:20.660Z,102194.94
2018-09-28T17:08:49.654Z,102198.28
2018-09-28T17:11:18.610Z,102203.05
2018-09-28T17:13:47.519Z,102204.98
2018-09-28T17:16:16.463Z,102203.27
2018-09-28T17:18:45.448Z,102203.96
2018-09-28T17:21:14.430Z,102210.53
2018-09-28T17:23:43.394Z,102207.40
2018-09-28T17:26:12.345Z,102210.72
2018-09-28T17:28:41.418Z,102212.35
2018-09-28T17:31:10.269Z,102233.33
2018-09-28T17:33:39.260Z,102235.19
2018-09-28T17:36:08.162Z,102235.09
2018-09-28T17:38:37.406Z,102240.52
2018-09-28T17:41:06.356Z,102242.24
2018-09-28T17:43:35.287Z,102245.98
2018-09-28T17:46:04.258Z,102254.53
2018-09-28T17:48:33.180Z,102261.23
2018-09-28T17:51:02.140Z,102259.70
2018-09-28T17:53:31.080Z,102263.92
2018-09-28T17:56:00.040Z,102258.23
2018-09-28T17:58:28.970Z,102260.56
2018-09-28T18:00:58.242Z,102260.33
2018-09-28T18:03:27.163Z,102265.43
2018-09-28T18:05:56.272Z,102268.13
2018-09-28T18:08:25.272Z,102276.42
2018-09-28T18:10:54.256Z,102274.02
2018-09-28T18:13:23.304Z,102274.88
2018-09-28T18:15:52.274Z,102277.20
2018-09-28T18:18:21.199Z,102275.77
2018-09-28T18:20:50.174Z,102283.16
2018-09-28T18:23:19.124Z,102279.48
2018-09-28T18:25:48.048Z,102283.19
2018-09-28T18:28:17.036Z,102284.67
2018-09-28T18:30:46.025Z,102289.22
2018-09-28T18:33:15.536Z,102294.35
2018-09-28T18:35:44.497Z,102290.92
2018-09-28T18:38:13.851Z,102293.63
2018-09-28T18:40:42.789Z,102299.52
2018-09-28T18:43:11.749Z,102293.72
2018-09-28T18:45:41.297Z,102295.27
2018-09-28T18:48:10.219Z,102290.83
2018-09-28T18:50:39.201Z,102289.19
2018-09-28T18:53:08.170Z,102291.56
2018-09-28T18:55:37.082Z,102285.91
2018-09-28T18:58:06.181Z,102293.38
2018-09-28T19:00:35.186Z,102295.31
2018-09-28T19:03:04.134Z,102292.14
2018-09-28T19:05:33.065Z,102299.95
2018-09-28T19:08:02.060Z,102302.42
2018-09-28T19:10:31.024Z,102305.09
2018-09-28T19:13:00.024Z,102312.06
2018-09-28T19:15:28.992Z,102316.39
2018-09-28T19:17:57.946Z,102309.81
2018-09-28T19:20:27.015Z,102317.12
2018-09-28T19:22:55.948Z,102316.28
2018-09-28T19:25:24.885Z,102314.69
2018-09-28T19:27:53.906Z,102324.07
2018-09-28T19:30:23.891Z,102321.08
2018-09-28T19:32:52.860Z,102320.50
2018-09-28T19:35:21.833Z,102327.19
2018-09-28T19:37:50.800Z,102327.09
2018-09-28T19:40:19.761Z,102324.94
2018-09-28T19:42:48.718Z,102332.43
2018-09-28T19:45:17.682Z,102344.08
2018-09-28T19:47:46.686Z,102338.13
2018-09-28T19:50:15.629Z,102337.43
2018-09-28T19:52:44.533Z,102343.78
2018-09-28T19:55:29.156Z,102340.90
2018-09-28T19:58:04.247Z,102348.81
2018-09-28T20:00:33.196Z,102345.90
2018-09-28T20:03:02.108Z,102349.88
2018-09-28T20:05:31.067Z,102347.38
2018-09-28T20:08:01.260Z,102354.89
2018-09-28T20:10:30.200Z,102357.09
2018-09-28T20:12:59.156Z,102368.73
2018-09-28T20:15:28.074Z,102373.41
2018-09-28T20:17:57.049Z,102370.52
2018-09-28T20:20:25.994Z,102378.19
2018-09-28T20:22:54.953Z,102382.95
2018-09-28T20:25:24.257Z,102388.14
2018-09-28T20:27:53.226Z,102391.44
2018-09-28T20:30:22.187Z,102384.31
2018-09-28T20:32:51.198Z,102384.75
2018-09-28T20:35:20.234Z,102394.59
2018-09-28T20:37:49.331Z,102390.75
2018-09-28T20:40:18.284Z,102397.28
2018-09-28T20:42:47.228Z,102400.38
2018-09-28T20:45:16.187Z,102404.52
2018-09-28T20:47:45.143Z,102409.00
2018-09-28T20:50:14.173Z,102404.52
2018-09-28T20:52:43.278Z,102417.30
2018-09-28T20:55:12.178Z,102407.86
2018-09-28T20:57:41.648Z,102417.59
2018-09-28T21:00:10.648Z,102416.05
2018-09-28T21:02:39.567Z,102414.48
2018-09-28T21:05:08.671Z,102424.53
2018-09-28T21:07:37.663Z,102422.58
2018-09-28T21:10:06.610Z,102428.80
2018-09-28T21:12:35.594Z,102433.45
2018-09-28T21:15:04.532Z,102441.55
2018-09-28T21:17:33.516Z,102435.62
2018-09-28T21:20:02.438Z,102433.75
2018-09-28T21:22:31.406Z,102440.08
2018-09-28T21:25:00.358Z,102445.36
2018-09-28T21:27:29.357Z,102445.25
2018-09-28T21:29:58.416Z,102437.59
2018-09-28T21:32:27.338Z,102439.34
2018-09-28T21:34:56.303Z,102444.00
2018-09-28T21:37:25.374Z,102442.58
2018-09-28T21:39:54.565Z,102439.12
2018-09-28T21:42:23.659Z,102444.13
2018-09-28T21:44:52.638Z,102447.61
2018-09-28T21:47:21.553Z,102456.84
2018-09-28T21:49:50.502Z,102448.38
2018-09-28T21:52:19.470Z,102447.67
2018-09-28T21:54:48.415Z,102457.34
2018-09-28T21:57:17.358Z,102449.26
2018-09-28T21:59:46.497Z,102445.69
2018-09-28T22:02:15.425Z,102446.49
2018-09-28T22:04:44.420Z,102454.59
2018-09-28T22:07:13.390Z,102457.58
2018-09-28T22:09:42.397Z,102455.22
2018-09-28T22:12:11.772Z,102459.60
2018-09-28T22:14:40.753Z,102465.25
2018-09-28T22:17:09.698Z,102468.96
2018-09-28T22:19:38.805Z,102469.72
2018-09-28T22:22:07.940Z,102470.95
2018-09-28T22:24:42.860Z,102465.09
2018-09-28T22:27:12.926Z,102456.04
2018-09-28T22:29:43.280Z,102456.27
2018-09-28T22:32:13.174Z,102458.92
2018-09-28T22:34:44.485Z,102465.91
2018-09-28T22:37:14.496Z,102472.17
2018-09-28T22:39:44.432Z,102471.82
2018-09-28T22:42:14.810Z,102478.20
2018-09-28T22:44:44.762Z,102472.94
2018-09-28T22:47:14.724Z,102469.48
2018-09-28T22:49:44.759Z,102473.83
2018-09-28T22:52:13.906Z,102473.84
2018-09-28T22:54:42.888Z,102470.94
2018-09-28T22:57:11.820Z,102467.53
2018-09-28T22:59:40.795Z,102474.37
2018-09-28T23:02:09.753Z,102475.48
2018-09-28T23:04:38.760Z,102480.06
2018-09-28T23:07:07.782Z,102473.26
2018-09-28T23:09:36.885Z,102468.95
2018-09-28T23:12:05.855Z,102469.45
2018-09-28T23:14:34.819Z,102479.94
2018-09-28T23:17:03.768Z,102480.48
2018-09-28T23:19:32.704Z,102482.56
2018-09-28T23:22:01.668Z,102493.97
2018-09-28T23:24:30.617Z,102488.48
2018-09-28T23:26:59.836Z,102486.30
2018-09-28T23:29:28.818Z,102492.07
2018-09-28T23:31:57.754Z,102493.94
2018-09-28T23:34:26.996Z,102493.63
2018-09-28T23:36:55.951Z,102495.10
2018-09-28T23:39:24.850Z,102497.13
2018-09-28T23:41:53.794Z,102499.42
2018-09-28T23:44:22.727Z,102501.20
2018-09-28T23:46:51.680Z,102505.05
2018-09-28T23:49:20.630Z,102504.92
2018-09-28T23:51:49.989Z,102509.98
2018-09-28T23:54:19.274Z,102504.08
2018-09-28T23:56:48.182Z,102507.16
2018-09-28T23:59:17.136Z,102502.11
